• Join FlightAware (Why Join?)
  • Login
  • US Flag 
11:54AM EST


 

Airport Tracker/Info


-or-


 

Live Flight TrackerFlight Track Log ✈ AAY846 ✈ 29-Dec-2013 ✈ KPIE - KPIA

Flight Track Log - Related Links

Times and Time Zones

All times are in EST time to prevent confusion due to time zone crossing. See the AAY846 flight status page for this flight to view local times or setup timezone preferences in your user account.

Time Position Orientation Groundspeed Altitude Reporting Facility
EST Latitude Longitude Course Direction KTS MPH feet Rate Location/Type
04:37PM 27.9167 -82.7000 19° North 138 159 800  Level Tampa TRACON
04:38PM 28.0000 -82.6667 19° North 232 267 3,800 2,083 Climbing Tampa TRACON
04:41PM 28.1872 -82.6500 North 270 311 9,200 2,184 Climbing Jacksonville Center
04:42PM 28.2750 -82.6617 353° North 289 333 11,300 1,650 Climbing Jacksonville Center
04:43PM 28.3708 -82.6778 352° North 322 371 12,500 1,300 Climbing Jacksonville Center
04:44PM 28.4753 -82.7272 337° Northwest 387 445 13,900 1,900 Climbing Jacksonville Center
04:45PM 28.5819 -82.7814 336° Northwest 399 459 16,300 1,850 Climbing Jacksonville Center
04:46PM 28.6675 -82.8239 336° Northwest 410 472 17,600 1,650 Climbing Jacksonville Center
04:47PM 28.7906 -82.8856 336° Northwest 423 487 19,600 2,050 Climbing Jacksonville Center
04:48PM 28.8867 -82.9683 323° Northwest 429 494 21,700 1,850 Climbing Jacksonville Center
04:49PM 28.9847 -83.0492 324° Northwest 434 499 23,300 1,600 Climbing Jacksonville Center
04:50PM 29.0847 -83.1325 324° Northwest 434 499 24,900 1,700 Climbing Jacksonville Center
04:51PM 29.1783 -83.2136 323° Northwest 434 499 26,700 1,650 Climbing Jacksonville Center
04:52PM 29.2764 -83.2925 325° Northwest 434 499 28,200 1,500 Climbing Jacksonville Center
04:53PM 29.3764 -83.3644 328° Northwest 428 493 29,700 1,450 Climbing Jacksonville Center
04:54PM 29.4928 -83.4317 333° Northwest 422 486 31,100 1,100 Climbing Jacksonville Center
04:55PM 29.5969 -83.4897 334° Northwest 417 480 31,900 400 Climbing Jacksonville Center
04:56PM 29.7033 -83.5500 334° Northwest 417 480 31,900  Level Jacksonville Center
04:57PM 29.8156 -83.6131 334° Northwest 428 493 31,900  Level Jacksonville Center
04:58PM 29.9217 -83.6714 335° Northwest 428 493 31,900  Level Jacksonville Center
04:59PM 30.0300 -83.7347 333° Northwest 428 493 31,900  Level Jacksonville Center
05:00PM 30.1381 -83.7956 334° Northwest 428 493 31,900  Level Jacksonville Center
05:01PM 30.2483 -83.8567 334° Northwest 428 493 31,900  Level Jacksonville Center
05:02PM 30.3542 -83.9181 333° Northwest 428 493 31,900  Level Jacksonville Center
05:03PM 30.4603 -83.9794 333° Northwest 428 493 31,900 50 Level Jacksonville Center
05:04PM 30.5661 -84.0433 333° Northwest 428 493 32,000 50 Climbing Jacksonville Center
05:05PM 30.6742 -84.1075 333° Northwest 428 493 32,000  Level Jacksonville Center
05:06PM 30.7800 -84.1669 334° Northwest 428 493 32,000  Level Jacksonville Center
05:07PM 30.8881 -84.2314 333° Northwest 428 493 32,000  Level Jacksonville Center
05:08PM 30.9958 -84.2958 333° Northwest 428 493 32,000  Level Jacksonville Center
05:09PM 31.0975 -84.3556 333° Northwest 428 493 32,000  Level Jacksonville Center
05:11PM 31.2950 -84.4689 334° Northwest 411 473 32,000  Level Atlanta Center
05:12PM 31.3992 -84.5303 333° Northwest 406 467 32,000  Level Atlanta Center
05:13PM 31.5033 -84.5942 332° Northwest 411 473 32,000  Level Atlanta Center
05:14PM 31.6072 -84.6558 333° Northwest 416 479 32,000  Level Atlanta Center
05:15PM 31.7133 -84.7200 333° Northwest 416 479 32,000  Level Atlanta Center
05:16PM 31.8175 -84.7819 333° Northwest 421 484 32,000  Level Atlanta Center
05:17PM 31.9256 -84.8367 337° Northwest 421 484 32,000  Level Atlanta Center
05:18PM 32.0381 -84.8892 338° Northwest 421 484 32,000  Level Atlanta Center
05:19PM 32.1525 -84.9392 340° North 426 490 32,000  Level Atlanta Center
05:20PM 32.2753 -84.9919 340° North 432 497 32,000  Level Atlanta Center
05:21PM 32.3897 -85.0425 340° North 432 497 32,000  Level Atlanta Center
05:22PM 32.5019 -85.0931 339° North 432 497 32,000  Level Atlanta Center
05:23PM 32.6203 -85.1461 339° North 435 501 32,000  Level Atlanta Center
05:24PM 32.7306 -85.1969 339° North 440 506 32,000  Level Atlanta Center
05:25PM 32.8406 -85.2503 338° Northwest 434 499 32,000  Level Atlanta Center
05:26PM 32.9550 -85.3014 339° North 434 499 32,000  Level Atlanta Center
05:27PM 33.0692 -85.3625 336° Northwest 429 494 32,000 750 Level Atlanta Center
05:28PM 33.1772 -85.4114 339° North 433 498 33,500 1,000 Climbing Atlanta Center
05:29PM 33.2850 -85.4603 339° North 418 481 34,000 250 Climbing Atlanta Center
05:30PM 33.3972 -85.5142 338° Northwest 418 481 34,000  Level Atlanta Center
05:31PM 33.4969 -85.5583 340° North 423 487 34,000  Level Atlanta Center
05:32PM 33.6067 -85.6128 338° Northwest 428 493 34,000  Level Atlanta Center
05:33PM 33.7167 -85.6622 340° North 428 493 34,000  Level Atlanta Center
05:34PM 33.8289 -85.7142 339° North 433 498 34,000  Level Atlanta Center
05:35PM 33.9408 -85.7664 339° North 433 498 34,000  Level Atlanta Center
05:36PM 34.0547 -85.8164 340° North 420 483 34,000  Level Atlanta Center
05:37PM 34.1647 -85.8714 338° Northwest 414 476 34,000  Level Atlanta Center
05:38PM 34.2744 -85.9217 339° North 414 476 34,000  Level Atlanta Center
05:39PM 34.3803 -85.9719 339° North 414 476 34,000  Level Atlanta Center
05:40PM 34.4919 -86.0247 339° North 414 476 34,000  Level Atlanta Center
05:41PM 34.5975 -86.0778 338° Northwest 414 476 34,000  Level Atlanta Center
05:42PM 34.7075 -86.1283 339° North 414 476 34,000  Level Atlanta Center
05:43PM 34.8150 -86.1842 337° Northwest 414 476 34,000  Level Atlanta Center
05:44PM 34.9247 -86.2350 339° North 414 476 34,000  Level Atlanta Center
05:46PM 35.1542 -86.3511 338° Northwest 422 486 34,000  Level Memphis Center
05:47PM 35.2642 -86.4044 338° Northwest 421 484 34,000  Level Memphis Center
05:48PM 35.3733 -86.4592 338° Northwest 421 484 34,000  Level Memphis Center
05:49PM 35.4828 -86.5131 338° Northwest 420 483 34,000  Level Memphis Center
05:50PM 35.6097 -86.5744 339° North 417 480 34,000  Level Memphis Center
05:51PM 35.7183 -86.6297 338° Northwest 417 480 34,000  Level Memphis Center
05:52PM 35.8264 -86.6833 338° Northwest 416 479 34,000  Level Memphis Center
05:53PM 35.9333 -86.7378 338° Northwest 413 475 34,000  Level Memphis Center
05:54PM 36.0422 -86.7922 338° Northwest 414 476 34,000  Level Memphis Center
05:55PM 36.1511 -86.8464 338° Northwest 416 479 34,000  Level Memphis Center
05:56PM 36.2631 -86.9028 338° Northwest 414 476 34,000  Level Memphis Center
05:57PM 36.3722 -86.9567 338° Northwest 417 480 34,000  Level Memphis Center
05:58PM 36.4853 -87.0139 338° Northwest 420 483 34,000  Level Memphis Center
05:59PM 36.5939 -87.0692 338° Northwest 418 481 34,000  Level Memphis Center
06:00PM 36.7019 -87.1244 338° Northwest 416 479 34,000  Level Memphis Center
06:01PM 36.8089 -87.1806 337° Northwest 414 476 34,000  Level Memphis Center
06:02PM 36.9183 -87.2361 338° Northwest 417 480 34,000  Level Memphis Center
06:03PM 37.0450 -87.3011 338° Northwest 418 481 34,000  Level Memphis Center
06:04PM 37.1522 -87.3569 337° Northwest 415 478 34,000  Level Memphis Center
06:05PM 37.2603 -87.4139 337° Northwest 416 479 34,000  Level Memphis Center
06:06PM 37.3697 -87.4703 338° Northwest 418 481 34,000  Level Memphis Center
06:07PM 37.4792 -87.5264 338° Northwest 420 483 34,000  Level Memphis Center
06:08PM 37.5892 -87.5836 338° Northwest 422 486 34,000  Level Memphis Center
06:09PM 37.6989 -87.6425 337° Northwest 423 487 34,000  Level Memphis Center
06:10PM 37.8078 -87.7000 337° Northwest 421 484 34,000  Level Memphis Center
06:12PM 37.9172 -87.7556 338° Northwest 420 483 34,000  Level Memphis Center
06:13PM 38.0289 -87.8208 335° Northwest 421 484 34,000  Level Kansas City Center
06:14PM 38.1375 -87.8839 335° Northwest 423 487 34,000  Level Kansas City Center
06:15PM 38.2436 -87.9478 335° Northwest 420 483 34,000  Level Kansas City Center
06:16PM 38.3503 -88.0117 335° Northwest 419 482 34,000  Level Kansas City Center
06:17PM 38.4575 -88.0747 335° Northwest 419 482 34,000  Level Kansas City Center
06:18PM 38.5850 -88.1522 335° Northwest 420 483 34,000  Level Kansas City Center
06:19PM 38.6917 -88.2167 335° Northwest 420 483 34,000  Level Kansas City Center
06:20PM 38.7975 -88.2811 335° Northwest 418 481 34,000 -341 Level Kansas City Center
06:21PM 38.9050 -88.3461 335° Northwest 420 483 33,300 -683 Descending Kansas City Center
06:22PM 39.0133 -88.4117 335° Northwest 425 489 32,600 -1,887 Descending Kansas City Center
06:23PM 39.1203 -88.4769 335° Northwest 424 488 29,400 -2,634 Descending Kansas City Center
06:24PM 39.2308 -88.5428 335° Northwest 429 494 27,200 -2,098 Descending Kansas City Center
06:25PM 39.3403 -88.6108 334° Northwest 434 499 25,100 -1,887 Descending Kansas City Center
06:26PM 39.4544 -88.6831 334° Northwest 452 520 23,300 -1,561 Descending Kansas City Center
06:27PM 39.5628 -88.7481 335° Northwest 440 506 21,900 -1,415 Descending Kansas City Center
06:28PM 39.6878 -88.8261 334° Northwest 420 483 20,400 -1,355 Descending Kansas City Center
06:29PM 39.7886 -88.8922 333° Northwest 412 474 19,100 -1,268 Descending Kansas City Center
06:30PM 39.8753 -88.9800 322° Northwest 402 463 17,800 -1,220 Descending Kansas City Center
06:31PM 39.9631 -89.0589 325° Northwest 392 451 16,600 -1,645 Descending Kansas City Center
06:32PM 40.0481 -89.1347 326° Northwest 381 438 14,400 -2,244 Descending Kansas City Center
06:33PM 40.1264 -89.2047 326° Northwest 356 410 12,000 -1,805 Descending Kansas City Center
06:34PM 40.2064 -89.2572 333° Northwest 332 382 10,700 -1,056 Descending Kansas City Center
06:35PM 40.2950 -89.2942 342° North 286 329 9,800 -1,104 Descending Chicago Center
06:36PM 40.3611 -89.3250 340° North 263 303 8,400 -1,452 Descending Chicago Center
06:37PM 40.4231 -89.3525 341° North 243 280 6,800 -1,610 Descending Chicago Center
06:38PM 40.4847 -89.3825 340° North 238 274 5,100 -1,610 Descending Chicago Center
06:39PM 40.5467 -89.4144 339° North 238 274 3,500 -1,113 Descending Chicago Center
06:40PM 40.5964 -89.4611 325° Northwest 238 274 2,800 -435 Descending Chicago Center
06:41PM 40.6133 -89.5472 285° West 213 245 2,600 -390 Descending Chicago Center
06:42PM 40.6347 -89.6031 297° West 187 215 2,000 -683 Descending Chicago Center
06:43PM 40.6386 -89.6517 276° West 151 174 1,200 -677 Descending Chicago Center
06:44PM 40.6581 -89.6847 308° West 127 146 600 -581 Descending Chicago Center
06:46PM 40.6500 -89.6833 323° Northwest  Level FlightAware Approximate